An Xiu Shan — BRQV — position and weather

sailwx.info

Track history (hours):
 
Tides and Currents Weather Stations Pressure Air Temp Water Temp Dewpoint Dewpoint Depression Visibility Wind Speed Wind Dir Waves Ship Positions

An Xiu Shan

Last reported at 2014-Aug-31 16:10 UTC. Time now 2014-Sep-01 14:07 UTC.
Position N 31°11' E 122°56'.

Length 199 m; draft 7 m.

Type: Cargo ship. MMSI: 413195000.

Date/timePositionNaut miles runAvg speedWind from/ knotsBaromVisibWave heightAir tempDewpointWater temp
2014-Aug-31 16:10N 31°11' E 122°56'813.2
2014-Aug-31 15:33N 31°03' E 122°56'1313.0
2014-Aug-31 14:33N 30°50' E 122°59'1511.7
2014-Aug-31 13:18N 30°36' E 123°04'911.7
2014-Aug-31 12:33N 30°28' E 123°04'1111.4
2014-Aug-31 11:34N 30°16' E 123°05'1111.3
2014-Aug-31 10:33N 30°06' E 123°00'1111.2
2014-Aug-31 09:33N 29°55' E 122°56'1211.9
2014-Aug-31 08:33N 29°44' E 122°52'30812.2
2014-Aug-30 07:17N 25°18' E 119°56'2111.4
2014-Aug-30 05:25N 24°60' E 119°43'1211.3
2014-Aug-30 04:19N 24°51' E 119°34'1112.1
2014-Aug-30 03:23N 24°44' E 119°24'1012.5
2014-Aug-30 02:33N 24°37' E 119°15'1313.3
2014-Aug-30 01:33N 24°29' E 119°04'1313.1
2014-Aug-30 00:33N 24°20' E 118°53'1312.8
2014-Aug-29 23:33N 24°12' E 118°42'1212.4
2014-Aug-29 22:33N 24°03' E 118°33'1211.7
2014-Aug-29 21:33N 23°56' E 118°23'1211.7
2014-Aug-29 20:33N 23°48' E 118°13'1211.7
2014-Aug-29 19:33N 23°41' E 118°03'1211.5
2014-Aug-29 18:33N 23°33' E 117°54'1312.3
2014-Aug-29 17:30N 23°25' E 117°43'1314.2
2014-Aug-29 16:33N 23°17' E 117°31'1313.3
2014-Aug-29 15:33N 23°07' E 117°21'1313.2
2014-Aug-29 14:33N 22°59' E 117°10'19412.1
2014-Aug-28 22:26N 21°45' E 113°56'  
Track history (hours):
 
Tides and Currents Weather Stations Pressure Air Temp Water Temp Dewpoint Dewpoint Depression Visibility Wind Speed Wind Dir Waves Ship Positions

An Xiu Shan

Last reported at 2014-Aug-31 16:10 UTC. Time now 2014-Sep-01 14:07 UTC.
Position N 31°11' E 122°56'.

Length 199 m; draft 7 m.

Type: Cargo ship. MMSI: 413195000.

Date/timePositionNaut miles runAvg speedWind from/ knotsBaromVisibWave heightAir tempDewpointWater temp
2014-Aug-31 16:10N 31°11' E 122°56'813.2
2014-Aug-31 15:33N 31°03' E 122°56'1313.0
2014-Aug-31 14:33N 30°50' E 122°59'1511.7
2014-Aug-31 13:18N 30°36' E 123°04'911.7
2014-Aug-31 12:33N 30°28' E 123°04'1111.4
2014-Aug-31 11:34N 30°16' E 123°05'1111.3
2014-Aug-31 10:33N 30°06' E 123°00'1111.2
2014-Aug-31 09:33N 29°55' E 122°56'1211.9
2014-Aug-31 08:33N 29°44' E 122°52'30812.2
2014-Aug-30 07:17N 25°18' E 119°56'2111.4
2014-Aug-30 05:25N 24°60' E 119°43'1211.3
2014-Aug-30 04:19N 24°51' E 119°34'1112.1
2014-Aug-30 03:23N 24°44' E 119°24'1012.5
2014-Aug-30 02:33N 24°37' E 119°15'1313.3
2014-Aug-30 01:33N 24°29' E 119°04'1313.1
2014-Aug-30 00:33N 24°20' E 118°53'1312.8
2014-Aug-29 23:33N 24°12' E 118°42'1212.4
2014-Aug-29 22:33N 24°03' E 118°33'1211.7
2014-Aug-29 21:33N 23°56' E 118°23'1211.7
2014-Aug-29 20:33N 23°48' E 118°13'1211.7
2014-Aug-29 19:33N 23°41' E 118°03'1211.5
2014-Aug-29 18:33N 23°33' E 117°54'1312.3
2014-Aug-29 17:30N 23°25' E 117°43'1314.2
2014-Aug-29 16:33N 23°17' E 117°31'1313.3
2014-Aug-29 15:33N 23°07' E 117°21'1313.2
2014-Aug-29 14:33N 22°59' E 117°10'19412.1
2014-Aug-28 22:26N 21°45' E 113°56'  

Dump ship's entire track history